createdAt,value
2019-01-22T00:00:21.813Z,91.85
2019-01-22T00:02:52.998Z,92.03
2019-01-22T00:05:23.826Z,91.80
2019-01-22T00:07:54.654Z,91.75
2019-01-22T00:10:25.482Z,91.72
2019-01-22T00:12:56.413Z,91.49
2019-01-22T00:15:27.470Z,91.86
2019-01-22T00:17:58.228Z,92.44
2019-01-22T00:20:29.043Z,92.95
2019-01-22T00:23:02.914Z,93.12
2019-01-22T00:25:32.425Z,92.73
2019-01-22T00:28:03.257Z,92.52
2019-01-22T00:30:34.141Z,92.24
2019-01-22T00:33:05.472Z,91.80
2019-01-22T00:35:36.361Z,92.30
2019-01-22T00:38:07.265Z,93.09
2019-01-22T00:40:38.042Z,93.62
2019-01-22T00:43:08.765Z,93.52
2019-01-22T00:45:39.525Z,93.55
2019-01-22T00:48:10.333Z,93.54
2019-01-22T00:50:41.442Z,93.57
2019-01-22T00:53:12.248Z,93.68
2019-01-22T00:55:43.117Z,93.68
2019-01-22T00:58:14.045Z,93.76
2019-01-22T01:00:44.838Z,94.09
2019-01-22T01:03:16.029Z,94.26
2019-01-22T01:05:46.797Z,94.38
2019-01-22T01:08:17.608Z,94.46
2019-01-22T01:10:48.364Z,94.26
2019-01-22T01:13:19.168Z,93.96
2019-01-22T01:15:50.120Z,93.60
2019-01-22T01:18:20.944Z,93.85
2019-01-22T01:20:51.699Z,93.45
2019-01-22T01:23:22.506Z,93.04
2019-01-22T01:25:53.263Z,93.20
2019-01-22T01:28:24.069Z,93.32
2019-01-22T01:30:54.901Z,93.48
2019-01-22T01:33:25.751Z,94.01
2019-01-22T01:35:56.644Z,94.07
2019-01-22T01:38:27.430Z,94.20
2019-01-22T01:40:58.246Z,94.10
2019-01-22T01:43:29.096Z,93.19
2019-01-22T01:45:59.895Z,92.89
2019-01-22T01:48:30.676Z,92.49
2019-01-22T01:51:01.577Z,92.62
2019-01-22T01:53:32.329Z,92.63
2019-01-22T01:56:03.144Z,92.75
2019-01-22T01:58:34.027Z,92.75
2019-01-22T02:01:04.933Z,92.93
2019-01-22T02:03:35.809Z,92.96
2019-01-22T02:06:06.697Z,92.88
2019-01-22T02:08:37.494Z,92.93
2019-01-22T02:11:24.949Z,92.87
2019-01-22T02:14:01.569Z,92.70
2019-01-22T02:17:23.687Z,92.73
2019-01-22T02:20:49.309Z,92.75
2019-01-22T02:24:55.881Z,92.76
2019-01-22T02:28:54.649Z,92.78
2019-01-22T02:32:15.077Z,92.88
2019-01-22T02:35:29.725Z,92.97
2019-01-22T02:38:59.554Z,92.95
2019-01-22T02:41:50.247Z,92.99
2019-01-22T02:45:34.619Z,92.95
2019-01-22T02:48:53.264Z,92.98
2019-01-22T02:52:22.338Z,92.95
2019-01-22T02:55:19.364Z,93.01
2019-01-22T02:58:50.303Z,92.74
2019-01-22T03:02:35.683Z,92.63
2019-01-22T03:05:52.173Z,92.78
2019-01-22T03:09:07.436Z,92.52
2019-01-22T03:12:31.624Z,92.51
2019-01-22T03:16:15.992Z,92.65
2019-01-22T03:19:39.401Z,92.78
2019-01-22T03:23:07.508Z,92.97
2019-01-22T03:26:07.858Z,93.10
2019-01-22T03:29:41.702Z,93.10
2019-01-22T03:32:57.974Z,92.98
2019-01-22T03:37:09.044Z,92.97
2019-01-22T03:40:41.152Z,93.04
2019-01-22T03:44:25.216Z,93.43
2019-01-22T03:47:46.614Z,93.58
2019-01-22T03:50:50.901Z,93.58
2019-01-22T03:54:42.126Z,93.54
2019-01-22T03:58:00.321Z,93.58
2019-01-22T04:01:40.881Z,93.59
2019-01-22T04:04:14.490Z,93.19
2019-01-22T04:06:54.524Z,92.97
2019-01-22T04:09:38.267Z,92.87
2019-01-22T04:12:13.072Z,92.86
2019-01-22T04:14:43.967Z,92.89
2019-01-22T04:17:15.194Z,92.90
2019-01-22T04:19:46.104Z,92.97
2019-01-22T04:22:41.783Z,93.08
2019-01-22T04:25:49.689Z,93.03
2019-01-22T04:29:33.514Z,93.02
2019-01-22T04:32:45.185Z,93.01
2019-01-22T04:36:14.399Z,92.94
2019-01-22T04:39:48.839Z,92.94
2019-01-22T04:43:29.896Z,93.01
2019-01-22T04:46:52.652Z,93.18
2019-01-22T04:50:25.583Z,93.12
2019-01-22T04:54:10.620Z,93.19
2019-01-22T04:57:37.535Z,93.09
2019-01-22T05:01:15.540Z,93.01
2019-01-22T05:04:35.887Z,93.11
2019-01-22T05:07:49.710Z,93.14
2019-01-22T05:11:29.590Z,93.28
2019-01-22T05:14:52.652Z,93.30
2019-01-22T05:18:15.792Z,93.32
2019-01-22T05:21:51.087Z,93.27
2019-01-22T05:25:48.785Z,93.16
2019-01-22T05:29:14.002Z,93.09
2019-01-22T05:32:41.237Z,93.20
2019-01-22T05:36:03.107Z,93.19
2019-01-22T05:39:15.367Z,93.14
2019-01-22T05:42:49.664Z,93.04
2019-01-22T05:45:59.690Z,92.95
2019-01-22T05:49:24.495Z,92.88
2019-01-22T05:52:17.335Z,92.39
2019-01-22T05:55:15.881Z,92.27
2019-01-22T05:58:52.608Z,92.34
2019-01-22T06:01:32.147Z,92.41
2019-01-22T06:04:55.772Z,92.32
2019-01-22T06:08:30.380Z,92.27
2019-01-22T06:12:12.235Z,92.25
2019-01-22T06:15:01.574Z,92.43
2019-01-22T06:18:21.646Z,92.55
2019-01-22T06:22:01.723Z,92.57
2019-01-22T06:25:22.822Z,92.59
2019-01-22T06:28:37.084Z,92.50
2019-01-22T06:31:52.379Z,92.56
2019-01-22T06:35:19.735Z,92.60
2019-01-22T06:38:45.763Z,92.99
2019-01-22T06:42:10.545Z,92.83
2019-01-22T06:45:45.479Z,92.90
2019-01-22T06:49:27.018Z,92.96
2019-01-22T06:52:48.910Z,93.00
2019-01-22T06:55:50.227Z,92.96
2019-01-22T06:59:20.945Z,92.83
2019-01-22T07:02:16.843Z,92.83
2019-01-22T07:05:42.516Z,92.62
2019-01-22T07:09:19.655Z,92.75
2019-01-22T07:13:01.920Z,92.72
2019-01-22T07:16:55.367Z,92.76
2019-01-22T07:20:42.147Z,92.03
2019-01-22T07:23:55.623Z,91.58
2019-01-22T07:27:26.008Z,90.93
2019-01-22T07:30:52.431Z,91.07
2019-01-22T07:34:10.114Z,91.17
2019-01-22T07:37:21.542Z,91.15
2019-01-22T07:40:46.513Z,91.02
2019-01-22T07:43:45.032Z,90.98
2019-01-22T07:47:12.548Z,90.59
2019-01-22T07:50:28.791Z,90.53
2019-01-22T07:53:31.069Z,90.28
2019-01-22T07:56:54.249Z,89.96
2019-01-22T08:00:26.846Z,89.69
2019-01-22T08:04:16.091Z,89.44
2019-01-22T08:07:24.386Z,89.15
2019-01-22T08:10:49.190Z,88.97
2019-01-22T08:14:18.657Z,88.76
2019-01-22T08:17:45.460Z,88.49
2019-01-22T08:21:19.497Z,88.10
2019-01-22T08:24:36.943Z,88.01
2019-01-22T08:27:50.371Z,87.86
2019-01-22T08:31:31.320Z,87.50
2019-01-22T08:35:01.446Z,87.20
2019-01-22T08:38:29.494Z,86.98
2019-01-22T08:41:51.868Z,86.74
2019-01-22T08:45:11.704Z,86.52
2019-01-22T08:48:42.284Z,86.44
2019-01-22T08:52:11.362Z,86.21
2019-01-22T08:55:46.996Z,85.45
2019-01-22T08:58:54.796Z,85.26
2019-01-22T09:02:24.774Z,85.06
2019-01-22T09:05:46.958Z,84.86
2019-01-22T09:09:01.369Z,84.48
2019-01-22T09:12:52.954Z,84.30
2019-01-22T09:16:37.733Z,84.65
2019-01-22T09:20:16.532Z,84.75
2019-01-22T09:23:54.449Z,84.52
2019-01-22T09:27:16.546Z,84.07
2019-01-22T09:30:35.832Z,83.40
2019-01-22T09:34:08.133Z,82.85
2019-01-22T09:37:11.430Z,82.60
2019-01-22T09:39:42.375Z,82.52
2019-01-22T09:42:13.234Z,82.48
2019-01-22T09:44:44.025Z,82.10
2019-01-22T09:47:14.822Z,81.95
2019-01-22T09:49:45.605Z,82.25
2019-01-22T09:52:16.458Z,82.24
2019-01-22T09:54:47.261Z,81.96
2019-01-22T09:57:18.093Z,82.01
2019-01-22T09:59:49.011Z,81.95
2019-01-22T10:02:19.847Z,81.83
2019-01-22T10:04:50.825Z,81.26
2019-01-22T10:07:24.089Z,81.01
2019-01-22T10:09:57.746Z,81.08
2019-01-22T10:12:28.577Z,80.96
2019-01-22T10:14:59.515Z,80.87
2019-01-22T10:17:30.291Z,80.99
2019-01-22T10:20:01.146Z,81.05
2019-01-22T10:22:32.125Z,81.26
2019-01-22T10:25:02.947Z,80.88
2019-01-22T10:27:33.789Z,80.88
2019-01-22T10:30:05.681Z,80.92
2019-01-22T10:32:36.446Z,81.42
2019-01-22T10:35:07.837Z,81.46
2019-01-22T10:37:38.639Z,81.79
2019-01-22T10:40:14.952Z,81.36
2019-01-22T10:42:45.965Z,80.22
2019-01-22T10:45:18.738Z,79.63
2019-01-22T10:47:49.800Z,79.44
2019-01-22T10:50:24.053Z,79.49
2019-01-22T10:52:54.914Z,79.93
2019-01-22T10:55:25.755Z,80.12
2019-01-22T10:57:56.527Z,79.94
2019-01-22T11:00:32.207Z,79.99
2019-01-22T11:03:03.069Z,79.66
2019-01-22T11:05:45.221Z,79.54
2019-01-22T11:08:18.600Z,79.69
2019-01-22T11:10:49.465Z,79.78
2019-01-22T11:13:20.358Z,79.72
2019-01-22T11:15:53.393Z,79.84
2019-01-22T11:18:24.274Z,79.90
2019-01-22T11:21:03.264Z,79.97
2019-01-22T11:23:34.120Z,79.43
2019-01-22T11:26:09.679Z,78.91
2019-01-22T11:28:43.505Z,79.15
2019-01-22T11:31:16.467Z,79.26
2019-01-22T11:33:49.783Z,79.36
2019-01-22T11:36:20.613Z,79.25
2019-01-22T11:38:51.600Z,78.59
2019-01-22T11:41:22.436Z,78.63
2019-01-22T11:43:53.181Z,79.05
2019-01-22T11:46:24.028Z,78.83
2019-01-22T11:48:54.853Z,77.69
2019-01-22T11:51:25.611Z,77.71
2019-01-22T11:53:57.112Z,77.72
2019-01-22T11:56:27.940Z,77.31
2019-01-22T11:59:01.704Z,77.18
2019-01-22T12:01:32.629Z,77.18
2019-01-22T12:04:05.339Z,77.54
2019-01-22T12:06:36.227Z,77.77
2019-01-22T12:09:10.216Z,77.94
2019-01-22T12:11:41.082Z,77.39
2019-01-22T12:14:11.888Z,76.66
2019-01-22T12:16:42.676Z,75.94
2019-01-22T12:19:13.428Z,75.71
2019-01-22T12:21:44.356Z,76.31
2019-01-22T12:24:15.246Z,76.32
2019-01-22T12:26:46.111Z,76.36
2019-01-22T12:29:20.180Z,76.32
2019-01-22T12:31:54.199Z,75.79
2019-01-22T12:34:25.112Z,74.79
2019-01-22T12:36:56.112Z,75.03
2019-01-22T12:39:27.049Z,74.96
2019-01-22T12:41:57.996Z,75.07
2019-01-22T12:44:28.924Z,75.09
2019-01-22T12:46:59.874Z,75.41
2019-01-22T12:49:30.702Z,75.50
2019-01-22T12:52:01.576Z,75.63
2019-01-22T12:54:32.416Z,75.31
2019-01-22T12:57:03.448Z,74.70
2019-01-22T12:59:34.365Z,74.06
2019-01-22T13:02:05.337Z,73.87
2019-01-22T13:04:36.142Z,74.13
2019-01-22T13:07:07.045Z,74.52
2019-01-22T13:09:37.867Z,74.55
2019-01-22T13:12:08.762Z,74.47
2019-01-22T13:14:39.631Z,74.43
2019-01-22T13:17:10.387Z,74.68
2019-01-22T13:19:41.168Z,74.91
2019-01-22T13:22:11.948Z,75.37
2019-01-22T13:24:42.711Z,75.67
2019-01-22T13:27:13.572Z,75.70
2019-01-22T13:29:44.376Z,75.25
2019-01-22T13:32:15.208Z,75.25
2019-01-22T13:34:45.966Z,75.22
2019-01-22T13:37:16.759Z,75.48
2019-01-22T13:39:47.566Z,75.40
2019-01-22T13:42:18.329Z,75.10
2019-01-22T13:44:49.159Z,74.43
2019-01-22T13:47:19.945Z,74.68
2019-01-22T13:49:50.691Z,74.61
2019-01-22T13:52:21.483Z,74.19
2019-01-22T13:54:52.335Z,73.72
2019-01-22T13:57:23.091Z,73.58
2019-01-22T13:59:53.937Z,73.57
2019-01-22T14:02:24.713Z,73.57
2019-01-22T14:04:55.574Z,73.77
2019-01-22T14:07:26.435Z,73.81
2019-01-22T14:09:57.237Z,73.92
2019-01-22T14:12:28.146Z,74.17
2019-01-22T14:14:59.052Z,74.54
2019-01-22T14:17:29.871Z,74.75
2019-01-22T14:20:00.684Z,74.42
2019-01-22T14:22:31.454Z,74.55
2019-01-22T14:25:02.301Z,74.45
2019-01-22T14:27:33.079Z,74.55
2019-01-22T14:30:03.979Z,74.31
2019-01-22T14:32:34.830Z,73.55
2019-01-22T14:35:06.635Z,73.47
2019-01-22T14:37:37.819Z,73.60
2019-01-22T14:40:11.444Z,73.58
2019-01-22T14:42:42.303Z,73.19
2019-01-22T14:45:14.991Z,73.17
2019-01-22T14:47:45.895Z,73.96
2019-01-22T14:50:25.906Z,74.23
2019-01-22T14:52:57.113Z,73.81
2019-01-22T14:55:28.256Z,74.36
2019-01-22T14:57:59.166Z,74.30
2019-01-22T15:00:30.944Z,74.74
2019-01-22T15:03:03.719Z,74.74
2019-01-22T15:05:37.481Z,74.41
2019-01-22T15:08:08.394Z,74.52
2019-01-22T15:10:39.265Z,74.84
2019-01-22T15:13:10.072Z,75.31
2019-01-22T15:15:53.435Z,76.12
2019-01-22T15:19:01.465Z,76.43
2019-01-22T15:21:32.289Z,76.44
2019-01-22T15:24:03.078Z,76.66
2019-01-22T15:26:39.371Z,76.77
2019-01-22T15:29:06.534Z,76.41
2019-01-22T15:31:37.398Z,76.50
2019-01-22T15:34:08.254Z,76.77
2019-01-22T15:36:39.187Z,76.94
2019-01-22T15:39:11.024Z,77.27
2019-01-22T15:41:41.947Z,77.67
2019-01-22T15:44:21.588Z,77.88
2019-01-22T15:46:52.566Z,77.56
2019-01-22T15:49:23.426Z,77.55
2019-01-22T15:51:54.619Z,77.83
2019-01-22T15:54:25.910Z,77.90
2019-01-22T15:56:56.858Z,77.83
2019-01-22T15:59:27.726Z,77.75
2019-01-22T16:01:58.950Z,77.94
2019-01-22T16:04:29.771Z,77.99
2019-01-22T16:07:00.610Z,77.90
2019-01-22T16:09:31.438Z,78.02
2019-01-22T16:12:04.342Z,77.93
2019-01-22T16:14:35.270Z,77.84
2019-01-22T16:17:06.227Z,77.50
2019-01-22T16:19:37.106Z,77.38
2019-01-22T16:22:08.008Z,77.41
2019-01-22T16:24:40.154Z,76.85
2019-01-22T16:27:11.226Z,76.83
2019-01-22T16:29:42.117Z,76.94
2019-01-22T16:32:13.079Z,76.83
2019-01-22T16:34:43.980Z,76.80
2019-01-22T16:37:15.202Z,76.52
2019-01-22T16:39:46.314Z,76.05
2019-01-22T16:42:17.146Z,76.02
2019-01-22T16:44:47.976Z,76.39
2019-01-22T16:47:18.802Z,76.55
2019-01-22T16:49:49.584Z,76.55
2019-01-22T16:52:20.978Z,76.61
2019-01-22T16:54:52.541Z,76.55
2019-01-22T16:57:23.518Z,76.15
2019-01-22T16:59:54.414Z,75.98
2019-01-22T17:02:25.268Z,76.34
2019-01-22T17:04:56.409Z,76.57
2019-01-22T17:07:27.421Z,76.55
2019-01-22T17:09:58.380Z,76.40
2019-01-22T17:12:29.269Z,77.02
2019-01-22T17:15:00.145Z,77.09
2019-01-22T17:17:31.381Z,77.22
2019-01-22T17:20:02.604Z,77.03
2019-01-22T17:22:33.794Z,76.69
2019-01-22T17:25:08.143Z,76.51
2019-01-22T17:27:39.051Z,76.69
2019-01-22T17:30:15.095Z,77.21
2019-01-22T17:33:03.910Z,77.06
2019-01-22T17:35:36.641Z,76.57
2019-01-22T17:38:07.612Z,75.95
2019-01-22T17:40:38.705Z,76.34
2019-01-22T17:43:09.661Z,76.59
2019-01-22T17:45:40.670Z,76.63
2019-01-22T17:48:11.801Z,77.02
2019-01-22T17:50:42.713Z,77.35
2019-01-22T17:53:23.090Z,77.67
2019-01-22T17:55:58.261Z,77.80
2019-01-22T17:58:31.252Z,78.24
2019-01-22T18:01:06.343Z,77.89
2019-01-22T18:03:39.549Z,77.78
2019-01-22T18:06:12.757Z,77.70
2019-01-22T18:08:43.673Z,77.58
2019-01-22T18:11:14.897Z,77.39
2019-01-22T18:13:46.177Z,77.26
2019-01-22T18:16:17.255Z,77.52
2019-01-22T18:19:00.525Z,77.84
2019-01-22T18:21:34.670Z,78.08
2019-01-22T18:24:22.355Z,78.59
2019-01-22T18:26:54.455Z,78.94
2019-01-22T18:29:25.449Z,78.94
2019-01-22T18:31:56.445Z,79.07
2019-01-22T18:34:27.323Z,79.17
2019-01-22T18:36:58.267Z,78.94
2019-01-22T18:39:29.207Z,79.20
2019-01-22T18:42:00.093Z,79.12
2019-01-22T18:44:30.984Z,79.00
2019-01-22T18:47:01.781Z,79.01
2019-01-22T18:49:32.698Z,79.06
2019-01-22T18:52:03.472Z,79.01
2019-01-22T18:54:34.328Z,79.15
2019-01-22T18:57:05.245Z,79.41
2019-01-22T18:59:36.121Z,79.23
2019-01-22T19:02:07.284Z,79.10
2019-01-22T19:04:38.274Z,79.32
2019-01-22T19:07:09.425Z,79.69
2019-01-22T19:10:03.770Z,80.04
2019-01-22T19:12:23.999Z,80.23
2019-01-22T19:14:59.351Z,80.22
2019-01-22T19:17:30.075Z,80.13
2019-01-22T19:20:03.749Z,80.22
2019-01-22T19:22:34.686Z,80.39
2019-01-22T19:25:09.452Z,80.47
2019-01-22T19:27:43.017Z,80.67
2019-01-22T19:30:17.971Z,81.08
2019-01-22T19:32:49.856Z,81.32
2019-01-22T19:35:20.854Z,81.84
2019-01-22T19:37:51.971Z,81.54
2019-01-22T19:40:23.260Z,81.69
2019-01-22T19:42:54.315Z,81.96
2019-01-22T19:45:35.076Z,81.85
2019-01-22T19:48:08.207Z,81.94
2019-01-22T19:50:39.403Z,82.09
2019-01-22T19:53:10.504Z,81.99
2019-01-22T19:55:41.673Z,82.24
2019-01-22T19:58:12.756Z,82.84
2019-01-22T20:00:45.474Z,83.23
2019-01-22T20:03:16.659Z,83.73
2019-01-22T20:05:47.967Z,83.97
2019-01-22T20:08:19.085Z,84.29
2019-01-22T20:10:53.311Z,84.19
2019-01-22T20:13:24.637Z,84.40
2019-01-22T20:15:55.647Z,84.86
2019-01-22T20:18:26.740Z,85.08
2019-01-22T20:20:57.608Z,85.63
2019-01-22T20:23:28.890Z,86.12
2019-01-22T20:25:59.878Z,86.51
2019-01-22T20:28:30.924Z,86.59
2019-01-22T20:31:01.961Z,86.55
2019-01-22T20:33:32.987Z,86.79
2019-01-22T20:36:04.008Z,86.96
2019-01-22T20:38:34.998Z,86.88
2019-01-22T20:41:06.180Z,87.69
2019-01-22T20:43:37.104Z,88.13
2019-01-22T20:46:07.932Z,88.52
2019-01-22T20:48:38.828Z,88.70
2019-01-22T20:51:09.653Z,89.01
2019-01-22T20:53:40.522Z,89.09
2019-01-22T20:56:11.408Z,88.86
2019-01-22T20:58:42.213Z,89.12
2019-01-22T21:01:13.192Z,89.42
2019-01-22T21:03:44.144Z,89.89
2019-01-22T21:06:16.304Z,90.19
2019-01-22T21:08:47.155Z,90.51
2019-01-22T21:11:19.019Z,90.89
2019-01-22T21:13:49.898Z,91.06
2019-01-22T21:16:20.670Z,91.01
2019-01-22T21:18:51.558Z,91.03
2019-01-22T21:21:22.408Z,90.85
2019-01-22T21:23:53.294Z,91.05
2019-01-22T21:26:24.160Z,91.28
2019-01-22T21:28:55.050Z,91.69
2019-01-22T21:31:29.002Z,92.07
2019-01-22T21:33:59.978Z,91.95
2019-01-22T21:36:30.898Z,92.35
2019-01-22T21:39:01.716Z,92.73
2019-01-22T21:41:32.663Z,92.78
2019-01-22T21:44:03.503Z,92.92
2019-01-22T21:46:34.601Z,93.27
2019-01-22T21:49:05.426Z,93.40
2019-01-22T21:51:36.337Z,93.61
2019-01-22T21:54:07.244Z,93.75
2019-01-22T21:56:38.243Z,93.93
2019-01-22T21:59:09.017Z,93.72
2019-01-22T22:01:40.002Z,93.50
2019-01-22T22:04:10.854Z,93.55
2019-01-22T22:06:41.745Z,93.27
2019-01-22T22:09:12.677Z,93.04
2019-01-22T22:11:43.463Z,92.97
2019-01-22T22:14:14.340Z,92.71
2019-01-22T22:16:45.211Z,92.22
2019-01-22T22:19:16.057Z,92.12
2019-01-22T22:21:46.879Z,92.17
2019-01-22T22:24:17.703Z,92.47
2019-01-22T22:26:48.495Z,92.57
2019-01-22T22:29:19.369Z,92.76
2019-01-22T22:31:50.335Z,92.99
2019-01-22T22:34:21.222Z,92.99
2019-01-22T22:36:52.111Z,93.04
2019-01-22T22:39:22.944Z,93.11
2019-01-22T22:41:53.783Z,93.15
2019-01-22T22:44:24.715Z,93.28
2019-01-22T22:46:55.521Z,93.48
2019-01-22T22:49:26.275Z,93.58
2019-01-22T22:51:57.169Z,93.60
2019-01-22T22:54:27.942Z,93.55
2019-01-22T22:56:58.701Z,93.40
2019-01-22T22:59:29.519Z,93.41
2019-01-22T23:02:00.458Z,93.30
2019-01-22T23:04:31.266Z,93.44
2019-01-22T23:07:02.096Z,93.44
2019-01-22T23:09:32.947Z,93.41
2019-01-22T23:12:03.939Z,93.33
2019-01-22T23:14:34.756Z,93.62
2019-01-22T23:17:05.542Z,93.32
2019-01-22T23:19:36.509Z,93.34
2019-01-22T23:22:07.373Z,93.32
2019-01-22T23:24:38.201Z,93.31
2019-01-22T23:27:08.944Z,93.21
2019-01-22T23:29:39.783Z,92.93
2019-01-22T23:32:10.574Z,92.86
2019-01-22T23:34:41.475Z,92.60
2019-01-22T23:37:12.355Z,92.56
2019-01-22T23:39:43.122Z,92.72
2019-01-22T23:42:13.919Z,92.82
2019-01-22T23:44:44.755Z,92.62
2019-01-22T23:47:15.620Z,92.37
2019-01-22T23:49:46.422Z,92.55
2019-01-22T23:52:17.195Z,92.71
2019-01-22T23:54:48.061Z,92.84
2019-01-22T23:57:18.878Z,92.67
2019-01-22T23:59:49.666Z,92.76
